sensor_id;sensor_type;location;lat;lon;timestamp;pressure;altitude;pressure_sealevel;temperature;humidity
72925;BME280;61070;50.794;7.054;2024-02-04T00:00:24;101859.75;;;9.52;86.64
72925;BME280;61070;50.794;7.054;2024-02-04T00:01:25;101858.84;;;9.55;86.46
72925;BME280;61070;50.794;7.054;2024-02-04T00:02:25;101861.69;;;9.46;86.59
72925;BME280;61070;50.794;7.054;2024-02-04T00:03:25;101866.94;;;9.44;87.22
72925;BME280;61070;50.794;7.054;2024-02-04T00:04:25;101868.69;;;9.45;87.15
72925;BME280;61070;50.794;7.054;2024-02-04T00:05:26;101867.03;;;9.41;87.40
72925;BME280;61070;50.794;7.054;2024-02-04T00:06:26;101863.44;;;9.45;87.44
72925;BME280;61070;50.794;7.054;2024-02-04T00:07:27;101862.34;;;9.54;87.14
72925;BME280;61070;50.794;7.054;2024-02-04T00:08:27;101856.34;;;9.49;87.54
72925;BME280;61070;50.794;7.054;2024-02-04T00:09:27;101860.31;;;9.65;86.75
72925;BME280;61070;50.794;7.054;2024-02-04T00:10:29;101862.38;;;9.52;87.32
72925;BME280;61070;50.794;7.054;2024-02-04T00:11:29;101854.47;;;9.54;87.68
72925;BME280;61070;50.794;7.054;2024-02-04T00:12:29;101856.13;;;9.58;87.51
72925;BME280;61070;50.794;7.054;2024-02-04T00:13:30;101857.13;;;9.52;88.00
72925;BME280;61070;50.794;7.054;2024-02-04T00:14:30;101853.81;;;9.44;88.12
72925;BME280;61070;50.794;7.054;2024-02-04T00:15:30;101858.09;;;9.48;88.44
72925;BME280;61070;50.794;7.054;2024-02-04T00:16:31;101861.25;;;9.63;88.31
72925;BME280;61070;50.794;7.054;2024-02-04T00:17:31;101865.97;;;9.48;88.39
72925;BME280;61070;50.794;7.054;2024-02-04T00:18:33;101853.94;;;9.40;89.14
72925;BME280;61070;50.794;7.054;2024-02-04T00:19:33;101855.94;;;9.30;89.50
72925;BME280;61070;50.794;7.054;2024-02-04T00:20:33;101862.06;;;9.30;89.83
72925;BME280;61070;50.794;7.054;2024-02-04T00:21:34;101859.44;;;9.30;90.10
72925;BME280;61070;50.794;7.054;2024-02-04T00:22:34;101858.56;;;9.30;89.96
72925;BME280;61070;50.794;7.054;2024-02-04T00:23:34;101855.78;;;9.36;89.89
72925;BME280;61070;50.794;7.054;2024-02-04T00:24:35;101853.97;;;9.38;89.73
72925;BME280;61070;50.794;7.054;2024-02-04T00:25:35;101855.75;;;9.38;89.80
72925;BME280;61070;50.794;7.054;2024-02-04T00:26:35;101849.84;;;9.28;90.38
72925;BME280;61070;50.794;7.054;2024-02-04T00:27:35;101853.34;;;9.28;90.38
72925;BME280;61070;50.794;7.054;2024-02-04T00:28:36;101850.81;;;9.24;90.55
72925;BME280;61070;50.794;7.054;2024-02-04T00:29:36;101844.78;;;9.22;90.67
72925;BME280;61070;50.794;7.054;2024-02-04T00:30:36;101839.69;;;9.16;90.73
72925;BME280;61070;50.794;7.054;2024-02-04T00:31:37;101843.97;;;9.18;90.95
72925;BME280;61070;50.794;7.054;2024-02-04T00:32:37;101829.19;;;9.14;91.19
72925;BME280;61070;50.794;7.054;2024-02-04T00:33:37;101839.47;;;9.23;91.15
72925;BME280;61070;50.794;7.054;2024-02-04T00:34:37;101836.91;;;9.22;90.94
72925;BME280;61070;50.794;7.054;2024-02-04T00:35:38;101841.41;;;9.17;91.07
72925;BME280;61070;50.794;7.054;2024-02-04T00:36:38;101837.72;;;9.24;91.38
72925;BME280;61070;50.794;7.054;2024-02-04T00:37:38;101837.53;;;9.31;90.89
72925;BME280;61070;50.794;7.054;2024-02-04T00:38:38;101836.84;;;9.25;90.60
72925;BME280;61070;50.794;7.054;2024-02-04T00:39:39;101842.19;;;9.20;90.88
72925;BME280;61070;50.794;7.054;2024-02-04T00:40:39;101837.13;;;9.13;91.11
72925;BME280;61070;50.794;7.054;2024-02-04T00:41:39;101850.28;;;9.11;91.23
72925;BME280;61070;50.794;7.054;2024-02-04T00:42:40;101845.63;;;9.22;91.13
72925;BME280;61070;50.794;7.054;2024-02-04T00:43:40;101837.94;;;9.15;91.14
72925;BME280;61070;50.794;7.054;2024-02-04T00:44:40;101845.69;;;9.19;91.20
72925;BME280;61070;50.794;7.054;2024-02-04T00:45:40;101843.91;;;9.21;91.25
72925;BME280;61070;50.794;7.054;2024-02-04T00:46:41;101836.84;;;9.25;91.18
72925;BME280;61070;50.794;7.054;2024-02-04T00:47:41;101838.44;;;9.30;91.02
72925;BME280;61070;50.794;7.054;2024-02-04T00:48:41;101845.69;;;9.19;90.90
72925;BME280;61070;50.794;7.054;2024-02-04T00:49:41;101838.69;;;9.20;91.16
72925;BME280;61070;50.794;7.054;2024-02-04T00:50:42;101844.91;;;9.16;91.01
72925;BME280;61070;50.794;7.054;2024-02-04T00:51:42;101840.78;;;9.05;91.71
72925;BME280;61070;50.794;7.054;2024-02-04T00:52:42;101843.88;;;9.23;91.42
72925;BME280;61070;50.794;7.054;2024-02-04T00:53:43;101845.84;;;9.13;91.38
72925;BME280;61070;50.794;7.054;2024-02-04T00:54:43;101832.56;;;9.21;91.60
72925;BME280;61070;50.794;7.054;2024-02-04T00:55:44;101847.56;;;9.14;91.34
72925;BME280;61070;50.794;7.054;2024-02-04T00:56:44;101839.31;;;9.31;91.00
72925;BME280;61070;50.794;7.054;2024-02-04T00:57:44;101839.47;;;9.23;90.84
72925;BME280;61070;50.794;7.054;2024-02-04T00:58:45;101836.06;;;9.20;91.06
72925;BME280;61070;50.794;7.054;2024-02-04T00:59:45;101841.09;;;9.29;91.16
72925;BME280;61070;50.794;7.054;2024-02-04T01:00:45;101842.84;;;9.28;90.94
72925;BME280;61070;50.794;7.054;2024-02-04T01:01:46;101835.88;;;9.27;90.97
72925;BME280;61070;50.794;7.054;2024-02-04T01:02:46;101838.56;;;9.24;91.02
72925;BME280;61070;50.794;7.054;2024-02-04T01:03:46;101840.31;;;9.25;90.98
72925;BME280;61070;50.794;7.054;2024-02-04T01:04:47;101832.47;;;9.24;91.30
72925;BME280;61070;50.794;7.054;2024-02-04T01:05:48;101822.09;;;9.19;91.49
72925;BME280;61070;50.794;7.054;2024-02-04T01:06:48;101836.09;;;9.18;91.07
72925;BME280;61070;50.794;7.054;2024-02-04T01:07:49;101834.38;;;9.17;91.42
72925;BME280;61070;50.794;7.054;2024-02-04T01:08:49;101823.09;;;9.15;91.33
72925;BME280;61070;50.794;7.054;2024-02-04T01:09:50;101830.69;;;9.26;90.88
72925;BME280;61070;50.794;7.054;2024-02-04T01:10:50;101823.59;;;9.29;90.88
72925;BME280;61070;50.794;7.054;2024-02-04T01:11:53;101825.34;;;9.29;90.65
72925;BME280;61070;50.794;7.054;2024-02-04T01:12:54;101828.06;;;9.26;90.68
72925;BME280;61070;50.794;7.054;2024-02-04T01:13:54;101820.84;;;9.36;90.55
72925;BME280;61070;50.794;7.054;2024-02-04T01:14:54;101831.34;;;9.34;90.14
72925;BME280;61070;50.794;7.054;2024-02-04T01:15:55;101830.59;;;9.30;90.21
72925;BME280;61070;50.794;7.054;2024-02-04T01:16:55;101830.81;;;9.21;90.56
72925;BME280;61070;50.794;7.054;2024-02-04T01:17:55;101833.69;;;9.09;90.79
72925;BME280;61070;50.794;7.054;2024-02-04T01:18:55;101834.38;;;9.17;90.88
72925;BME280;61070;50.794;7.054;2024-02-04T01:19:56;101837.06;;;9.16;90.98
72925;BME280;61070;50.794;7.054;2024-02-04T01:20:56;101836.25;;;9.12;91.16
72925;BME280;61070;50.794;7.054;2024-02-04T01:21:56;101837.13;;;9.13;91.03
72925;BME280;61070;50.794;7.054;2024-02-04T01:22:58;101836.97;;;9.19;91.20
72925;BME280;61070;50.794;7.054;2024-02-04T01:23:58;101841.31;;;9.20;90.87
72925;BME280;61070;50.794;7.054;2024-02-04T01:24:58;101843.09;;;9.18;90.62
72925;BME280;61070;50.794;7.054;2024-02-04T01:25:59;101841.34;;;9.18;90.82
72925;BME280;61070;50.794;7.054;2024-02-04T01:26:59;101844.81;;;9.19;90.54
72925;BME280;61070;50.794;7.054;2024-02-04T01:27:59;101843.16;;;9.15;90.63
72925;BME280;61070;50.794;7.054;2024-02-04T01:28:59;101844.13;;;9.12;91.01
72925;BME280;61070;50.794;7.054;2024-02-04T01:30:01;101845.56;;;9.25;90.61
72925;BME280;61070;50.794;7.054;2024-02-04T01:31:02;101846.44;;;9.24;90.54
72925;BME280;61070;50.794;7.054;2024-02-04T01:32:02;101844.81;;;9.20;90.47
72925;BME280;61070;50.794;7.054;2024-02-04T01:33:03;101841.31;;;9.20;90.51
72925;BME280;61070;50.794;7.054;2024-02-04T01:34:03;101845.63;;;9.22;90.42
72925;BME280;61070;50.794;7.054;2024-02-04T01:35:04;101842.09;;;9.25;90.49
72925;BME280;61070;50.794;7.054;2024-02-04T01:36:04;101834.13;;;9.28;90.11
72925;BME280;61070;50.794;7.054;2024-02-04T01:37:04;101829.63;;;9.33;90.14
72925;BME280;61070;50.794;7.054;2024-02-04T01:38:05;101829.56;;;9.36;89.53
72925;BME280;61070;50.794;7.054;2024-02-04T01:39:05;101835.81;;;9.30;89.60
72925;BME280;61070;50.794;7.054;2024-02-04T01:40:06;101838.19;;;9.41;89.20
72925;BME280;61070;50.794;7.054;2024-02-04T01:41:06;101835.94;;;9.24;89.71
72925;BME280;61070;50.794;7.054;2024-02-04T01:42:07;101829.72;;;9.30;90.16
72925;BME280;61070;50.794;7.054;2024-02-04T01:43:07;101832.47;;;9.24;90.07
72925;BME280;61070;50.794;7.054;2024-02-04T01:44:08;101826.53;;;9.17;90.41
72925;BME280;61070;50.794;7.054;2024-02-04T01:45:08;101836.69;;;9.29;90.41
72925;BME280;61070;50.794;7.054;2024-02-04T01:46:09;101829.78;;;9.27;89.99
72925;BME280;61070;50.794;7.054;2024-02-04T01:47:10;101824.50;;;9.28;89.84
72925;BME280;61070;50.794;7.054;2024-02-04T01:48:10;101824.44;;;9.31;89.87
72925;BME280;61070;50.794;7.054;2024-02-04T01:49:11;101831.59;;;9.25;89.87
72925;BME280;61070;50.794;7.054;2024-02-04T01:50:11;101834.81;;;9.36;90.04
72925;BME280;61070;50.794;7.054;2024-02-04T01:51:13;101825.22;;;9.35;90.09
72925;BME280;61070;50.794;7.054;2024-02-04T01:52:14;101834.00;;;9.32;89.47
72925;BME280;61070;50.794;7.054;2024-02-04T01:53:15;101828.81;;;9.31;89.71
72925;BME280;61070;50.794;7.054;2024-02-04T01:54:16;101827.81;;;9.37;89.79
72925;BME280;61070;50.794;7.054;2024-02-04T01:55:16;101820.94;;;9.31;89.50
72925;BME280;61070;50.794;7.054;2024-02-04T01:56:17;101827.06;;;9.31;89.51
72925;BME280;61070;50.794;7.054;2024-02-04T01:57:17;101831.09;;;9.45;89.77
72925;BME280;61070;50.794;7.054;2024-02-04T01:58:18;101828.81;;;9.31;89.28
72925;BME280;61070;50.794;7.054;2024-02-04T01:59:20;101829.75;;;9.28;89.80
72925;BME280;61070;50.794;7.054;2024-02-04T02:00:23;101827.22;;;9.25;90.23
72925;BME280;61070;50.794;7.054;2024-02-04T02:01:23;101817.47;;;9.29;89.66
72925;BME280;61070;50.794;7.054;2024-02-04T02:02:25;101819.34;;;9.25;89.93
72925;BME280;61070;50.794;7.054;2024-02-04T02:03:26;101815.97;;;9.20;90.34
72925;BME280;61070;50.794;7.054;2024-02-04T02:04:26;101815.16;;;9.17;90.20
72925;BME280;61070;50.794;7.054;2024-02-04T02:05:27;101817.69;;;9.21;90.40
72925;BME280;61070;50.794;7.054;2024-02-04T02:06:27;101822.63;;;9.33;89.91
72925;BME280;61070;50.794;7.054;2024-02-04T02:07:27;101813.03;;;9.32;89.78
72925;BME280;61070;50.794;7.054;2024-02-04T02:08:27;101812.81;;;9.42;89.24
72925;BME280;61070;50.794;7.054;2024-02-04T02:09:28;101821.53;;;9.42;89.13
72925;BME280;61070;50.794;7.054;2024-02-04T02:10:29;101824.00;;;9.48;88.94
72925;BME280;61070;50.794;7.054;2024-02-04T02:11:37;101820.91;;;9.32;89.19
72925;BME280;61070;50.794;7.054;2024-02-04T02:12:41;101825.97;;;9.40;89.10
72925;BME280;61070;50.794;7.054;2024-02-04T02:13:50;101815.72;;;9.31;89.50
72925;BME280;61070;50.794;7.054;2024-02-04T02:15:10;101815.72;;;9.29;89.72
72925;BME280;61070;50.794;7.054;2024-02-04T02:16:15;101819.97;;;9.35;89.78
72925;BME280;61070;50.794;7.054;2024-02-04T02:17:24;101818.91;;;9.42;89.30
72925;BME280;61070;50.794;7.054;2024-02-04T02:18:37;101818.09;;;9.40;89.27
72925;BME280;61070;50.794;7.054;2024-02-04T02:19:52;101812.00;;;9.38;88.98
72925;BME280;61070;50.794;7.054;2024-02-04T02:21:24;101815.78;;;9.28;89.57
72925;BME280;61070;50.794;7.054;2024-02-04T02:22:50;101800.13;;;9.25;90.07
72925;BME280;61070;50.794;7.054;2024-02-04T02:24:05;101790.38;;;9.30;89.75
72925;BME280;61070;50.794;7.054;2024-02-04T02:25:10;101799.13;;;9.29;89.47
72925;BME280;61070;50.794;7.054;2024-02-04T02:26:10;101801.56;;;9.37;89.46
72925;BME280;61070;50.794;7.054;2024-02-04T02:27:11;101798.19;;;9.31;89.29
72925;BME280;61070;50.794;7.054;2024-02-04T02:28:11;101801.63;;;9.35;89.44
72925;BME280;61070;50.794;7.054;2024-02-04T02:29:12;101810.47;;;9.29;89.60
72925;BME280;61070;50.794;7.054;2024-02-04T02:30:12;101812.41;;;9.23;89.98
72925;BME280;61070;50.794;7.054;2024-02-04T02:31:13;101808.84;;;9.25;90.19
72925;BME280;61070;50.794;7.054;2024-02-04T02:32:13;101806.28;;;9.22;89.97
72925;BME280;61070;50.794;7.054;2024-02-04T02:33:13;101809.63;;;9.29;89.97
72925;BME280;61070;50.794;7.054;2024-02-04T02:34:14;101812.25;;;9.29;89.84
72925;BME280;61070;50.794;7.054;2024-02-04T02:35:15;101805.22;;;9.29;89.74
72925;BME280;61070;50.794;7.054;2024-02-04T02:36:21;101797.94;;;9.42;89.78
72925;BME280;61070;50.794;7.054;2024-02-04T02:39:34;101802.28;;;9.43;89.26
72925;BME280;61070;50.794;7.054;2024-02-04T02:40:47;101797.13;;;9.40;89.61
72925;BME280;61070;50.794;7.054;2024-02-04T02:41:50;101802.59;;;9.31;89.74
72925;BME280;61070;50.794;7.054;2024-02-04T02:42:55;101801.53;;;9.38;89.75
72925;BME280;61070;50.794;7.054;2024-02-04T02:43:56;101800.66;;;9.38;89.93
72925;BME280;61070;50.794;7.054;2024-02-04T02:44:56;101811.09;;;9.41;89.84
72925;BME280;61070;50.794;7.054;2024-02-04T02:45:57;101799.00;;;9.33;89.98
72925;BME280;61070;50.794;7.054;2024-02-04T02:46:59;101798.16;;;9.33;90.06
72925;BME280;61070;50.794;7.054;2024-02-04T02:48:02;101799.88;;;9.34;90.11
72925;BME280;61070;50.794;7.054;2024-02-04T02:49:04;101796.66;;;9.23;90.11
72925;BME280;61070;50.794;7.054;2024-02-04T02:50:05;101804.34;;;9.30;90.32
72925;BME280;61070;50.794;7.054;2024-02-04T02:51:06;101808.66;;;9.33;89.74
72925;BME280;61070;50.794;7.054;2024-02-04T02:52:06;101804.94;;;9.42;89.61
72925;BME280;61070;50.794;7.054;2024-02-04T02:53:06;101797.25;;;9.36;89.32
72925;BME280;61070;50.794;7.054;2024-02-04T02:54:07;101796.22;;;9.41;89.62
72925;BME280;61070;50.794;7.054;2024-02-04T02:55:07;101799.81;;;9.37;89.34
72925;BME280;61070;50.794;7.054;2024-02-04T02:56:08;101805.56;;;9.51;89.37
72925;BME280;61070;50.794;7.054;2024-02-04T02:57:08;101796.78;;;9.52;88.73
72925;BME280;61070;50.794;7.054;2024-02-04T02:58:08;101794.59;;;9.70;88.58
72925;BME280;61070;50.794;7.054;2024-02-04T02:59:08;101800.72;;;9.69;88.07
72925;BME280;61070;50.794;7.054;2024-02-04T03:00:09;101789.47;;;9.65;88.02
72925;BME280;61070;50.794;7.054;2024-02-04T03:01:09;101797.31;;;9.67;88.09
72925;BME280;61070;50.794;7.054;2024-02-04T03:02:10;101793.69;;;9.71;88.27
72925;BME280;61070;50.794;7.054;2024-02-04T03:03:11;101790.28;;;9.67;88.01
72925;BME280;61070;50.794;7.054;2024-02-04T03:04:11;101794.72;;;9.65;87.80
72925;BME280;61070;50.794;7.054;2024-02-04T03:05:12;101790.63;;;9.53;88.37
72925;BME280;61070;50.794;7.054;2024-02-04T03:06:13;101800.03;;;9.62;88.28
72925;BME280;61070;50.794;7.054;2024-02-04T03:07:13;101794.72;;;9.65;88.27
72925;BME280;61070;50.794;7.054;2024-02-04T03:08:13;101792.16;;;9.62;87.75
72925;BME280;61070;50.794;7.054;2024-02-04T03:09:14;101795.66;;;9.63;88.45
72925;BME280;61070;50.794;7.054;2024-02-04T03:10:14;101796.50;;;9.65;88.25
72925;BME280;61070;50.794;7.054;2024-02-04T03:11:14;101800.03;;;9.62;88.17
72925;BME280;61070;50.794;7.054;2024-02-04T03:12:14;101794.44;;;9.76;88.28
72925;BME280;61070;50.794;7.054;2024-02-04T03:13:15;101793.66;;;9.72;87.71
72925;BME280;61070;50.794;7.054;2024-02-04T03:14:16;101791.75;;;9.77;87.38
72925;BME280;61070;50.794;7.054;2024-02-04T03:15:16;101779.78;;;9.67;88.04
72925;BME280;61070;50.794;7.054;2024-02-04T03:16:17;101792.22;;;9.61;88.17
72925;BME280;61070;50.794;7.054;2024-02-04T03:17:17;101787.59;;;9.70;87.94
72925;BME280;61070;50.794;7.054;2024-02-04T03:18:20;101792.97;;;9.66;88.06
72925;BME280;61070;50.794;7.054;2024-02-04T03:19:21;101780.78;;;9.63;88.19
72925;BME280;61070;50.794;7.054;2024-02-04T03:20:21;101784.91;;;9.72;88.13
72925;BME280;61070;50.794;7.054;2024-02-04T03:21:21;101798.84;;;9.74;87.94
72925;BME280;61070;50.794;7.054;2024-02-04T03:22:22;101786.81;;;9.67;87.87
72925;BME280;61070;50.794;7.054;2024-02-04T03:23:22;101789.13;;;9.77;88.03
72925;BME280;61070;50.794;7.054;2024-02-04T03:24:22;101793.53;;;9.77;87.81
72925;BME280;61070;50.794;7.054;2024-02-04T03:25:23;101795.28;;;9.76;87.65
72925;BME280;61070;50.794;7.054;2024-02-04T03:26:26;101790.28;;;9.67;88.46
72925;BME280;61070;50.794;7.054;2024-02-04T03:27:26;101789.31;;;9.71;88.46
72925;BME280;61070;50.794;7.054;2024-02-04T03:28:27;101790.97;;;9.75;88.40
72925;BME280;61070;50.794;7.054;2024-02-04T03:29:27;101791.75;;;9.77;88.33
72925;BME280;61070;50.794;7.054;2024-02-04T03:30:27;101793.47;;;9.78;88.50
72925;BME280;61070;50.794;7.054;2024-02-04T03:31:27;101794.47;;;9.74;88.54
72925;BME280;61070;50.794;7.054;2024-02-04T03:32:28;101787.38;;;9.78;88.50
72925;BME280;61070;50.794;7.054;2024-02-04T03:33:33;101789.75;;;9.87;88.54
72925;BME280;61070;50.794;7.054;2024-02-04T03:34:33;101788.09;;;9.83;88.25
72925;BME280;61070;50.794;7.054;2024-02-04T03:35:35;101786.16;;;9.91;88.09
72925;BME280;61070;50.794;7.054;2024-02-04T03:36:37;101796.84;;;9.83;88.46
72925;BME280;61070;50.794;7.054;2024-02-04T03:37:38;101786.50;;;9.77;88.42
72925;BME280;61070;50.794;7.054;2024-02-04T03:38:38;101788.97;;;9.83;88.56
72925;BME280;61070;50.794;7.054;2024-02-04T03:39:39;101789.00;;;9.82;88.36
72925;BME280;61070;50.794;7.054;2024-02-04T03:40:39;101798.78;;;9.77;89.08
72925;BME280;61070;50.794;7.054;2024-02-04T03:41:42;101794.47;;;9.74;88.76
72925;BME280;61070;50.794;7.054;2024-02-04T03:42:43;101789.81;;;9.86;88.43
72925;BME280;61070;50.794;7.054;2024-02-04T03:43:43;101793.59;;;9.74;88.51
72925;BME280;61070;50.794;7.054;2024-02-04T03:44:44;101802.94;;;9.86;88.77
72925;BME280;61070;50.794;7.054;2024-02-04T03:45:45;101797.75;;;9.82;88.70
72925;BME280;61070;50.794;7.054;2024-02-04T03:46:49;101798.44;;;9.89;88.66
72925;BME280;61070;50.794;7.054;2024-02-04T03:47:50;101795.00;;;9.87;88.63
72925;BME280;61070;50.794;7.054;2024-02-04T03:48:50;101780.97;;;9.88;88.27
72925;BME280;61070;50.794;7.054;2024-02-04T03:49:50;101783.69;;;9.85;88.17
72925;BME280;61070;50.794;7.054;2024-02-04T03:50:51;101778.41;;;9.87;88.30
72925;BME280;61070;50.794;7.054;2024-02-04T03:51:51;101791.53;;;9.87;88.06
72925;BME280;61070;50.794;7.054;2024-02-04T03:52:51;101793.19;;;9.89;87.71
72925;BME280;61070;50.794;7.054;2024-02-04T03:53:51;101796.97;;;9.79;88.67
72925;BME280;61070;50.794;7.054;2024-02-04T03:54:52;101795.13;;;9.82;88.67
72925;BME280;61070;50.794;7.054;2024-02-04T03:55:52;101793.34;;;9.84;88.43
72925;BME280;61070;50.794;7.054;2024-02-04T03:56:52;101774.66;;;9.95;88.07
72925;BME280;61070;50.794;7.054;2024-02-04T03:57:54;101781.63;;;9.96;87.86
72925;BME280;61070;50.794;7.054;2024-02-04T03:58:57;101781.81;;;9.90;88.06
72925;BME280;61070;50.794;7.054;2024-02-04T03:59:57;101793.13;;;9.92;88.22
72925;BME280;61070;50.794;7.054;2024-02-04T04:00:58;101790.53;;;9.91;87.78
72925;BME280;61070;50.794;7.054;2024-02-04T04:01:59;101793.28;;;9.86;88.09
72925;BME280;61070;50.794;7.054;2024-02-04T04:02:59;101787.81;;;9.94;88.16
72925;BME280;61070;50.794;7.054;2024-02-04T04:03:59;101788.66;;;9.94;88.05
72925;BME280;61070;50.794;7.054;2024-02-04T04:05:00;101795.66;;;9.95;87.87
72925;BME280;61070;50.794;7.054;2024-02-04T04:06:00;101787.88;;;9.92;88.29
72925;BME280;61070;50.794;7.054;2024-02-04T04:07:00;101782.69;;;9.89;88.24
72925;BME280;61070;50.794;7.054;2024-02-04T04:08:00;101783.81;;;9.80;88.71
72925;BME280;61070;50.794;7.054;2024-02-04T04:09:01;101787.38;;;9.78;88.86
72925;BME280;61070;50.794;7.054;2024-02-04T04:10:01;101780.22;;;9.84;88.83
72925;BME280;61070;50.794;7.054;2024-02-04T04:11:01;101778.41;;;9.87;88.16
72925;BME280;61070;50.794;7.054;2024-02-04T04:12:01;101784.63;;;9.82;88.53
72925;BME280;61070;50.794;7.054;2024-02-04T04:13:02;101775.91;;;9.82;88.53
72925;BME280;61070;50.794;7.054;2024-02-04T04:14:02;101767.91;;;9.87;88.27
72925;BME280;61070;50.794;7.054;2024-02-04T04:15:03;101765.28;;;9.87;88.23
72925;BME280;61070;50.794;7.054;2024-02-04T04:16:04;101772.41;;;9.81;88.38
72925;BME280;61070;50.794;7.054;2024-02-04T04:17:04;101760.53;;;9.99;88.00
72925;BME280;61070;50.794;7.054;2024-02-04T04:18:05;101760.63;;;9.96;87.52
72925;BME280;61070;50.794;7.054;2024-02-04T04:19:05;101772.91;;;9.94;87.93
72925;BME280;61070;50.794;7.054;2024-02-04T04:20:06;101777.28;;;9.95;87.57
72925;BME280;61070;50.794;7.054;2024-02-04T04:21:07;101779.00;;;9.96;87.78
72925;BME280;61070;50.794;7.054;2024-02-04T04:22:07;101785.91;;;9.99;87.36
72925;BME280;61070;50.794;7.054;2024-02-04T04:23:07;101784.16;;;9.99;87.37
72925;BME280;61070;50.794;7.054;2024-02-04T04:24:08;101785.06;;;9.98;87.37
72925;BME280;61070;50.794;7.054;2024-02-04T04:25:09;101786.94;;;9.93;87.73
72925;BME280;61070;50.794;7.054;2024-02-04T04:26:09;101779.69;;;10.03;87.53
72925;BME280;61070;50.794;7.054;2024-02-04T04:27:09;101786.66;;;10.04;87.30
72925;BME280;61070;50.794;7.054;2024-02-04T04:28:09;101775.16;;;10.08;87.16
72925;BME280;61070;50.794;7.054;2024-02-04T04:29:10;101779.47;;;10.10;86.64
72925;BME280;61070;50.794;7.054;2024-02-04T04:30:10;101780.41;;;10.08;87.09
72925;BME280;61070;50.794;7.054;2024-02-04T04:31:10;101785.78;;;10.05;87.50
72925;BME280;61070;50.794;7.054;2024-02-04T04:32:11;101783.22;;;10.02;87.52
72925;BME280;61070;50.794;7.054;2024-02-04T04:33:11;101781.63;;;9.96;87.61
72925;BME280;61070;50.794;7.054;2024-02-04T04:34:12;101778.81;;;10.02;87.52
72925;BME280;61070;50.794;7.054;2024-02-04T04:35:12;101791.03;;;10.05;87.30
72925;BME280;61070;50.794;7.054;2024-02-04T04:36:12;101793.41;;;10.13;87.22
72925;BME280;61070;50.794;7.054;2024-02-04T04:37:13;101795.31;;;10.07;87.12
72925;BME280;61070;50.794;7.054;2024-02-04T04:38:13;101796.41;;;9.99;87.36
72925;BME280;61070;50.794;7.054;2024-02-04T04:39:13;101793.53;;;10.08;87.37
72925;BME280;61070;50.794;7.054;2024-02-04T04:40:14;101781.63;;;9.96;87.61
72925;BME280;61070;50.794;7.054;2024-02-04T04:41:14;101792.69;;;10.07;87.07
72925;BME280;61070;50.794;7.054;2024-02-04T04:42:14;101779.78;;;10.00;87.45
72925;BME280;61070;50.794;7.054;2024-02-04T04:43:14;101785.84;;;10.02;87.64
72925;BME280;61070;50.794;7.054;2024-02-04T04:44:15;101792.19;;;9.95;87.56
72925;BME280;61070;50.794;7.054;2024-02-04T04:45:15;101793.13;;;9.92;87.99
72925;BME280;61070;50.794;7.054;2024-02-04T04:46:15;101793.66;;;10.03;87.93
72925;BME280;61070;50.794;7.054;2024-02-04T04:47:16;101801.78;;;9.94;88.10
72925;BME280;61070;50.794;7.054;2024-02-04T04:48:16;101800.06;;;9.95;88.49
72925;BME280;61070;50.794;7.054;2024-02-04T04:49:16;101794.59;;;10.02;87.79
72925;BME280;61070;50.794;7.054;2024-02-04T04:50:16;101800.63;;;10.06;87.18
72925;BME280;61070;50.794;7.054;2024-02-04T04:51:17;101794.59;;;10.02;87.74
72925;BME280;61070;50.794;7.054;2024-02-04T04:52:17;101800.88;;;9.97;87.78
72925;BME280;61070;50.794;7.054;2024-02-04T04:53:17;101803.53;;;9.95;88.18
72925;BME280;61070;50.794;7.054;2024-02-04T04:54:17;101817.53;;;9.96;88.04
72925;BME280;61070;50.794;7.054;2024-02-04T04:55:18;101813.00;;;10.01;87.60
72925;BME280;61070;50.794;7.054;2024-02-04T04:56:19;101807.16;;;9.91;88.33
72925;BME280;61070;50.794;7.054;2024-02-04T04:57:19;101818.94;;;10.07;87.87
72925;BME280;61070;50.794;7.054;2024-02-04T04:58:19;101827.97;;;9.97;87.69
72925;BME280;61070;50.794;7.054;2024-02-04T04:59:20;101832.31;;;9.98;88.07
72925;BME280;61070;50.794;7.054;2024-02-04T05:00:20;101832.53;;;9.91;88.27
72925;BME280;61070;50.794;7.054;2024-02-04T05:01:20;101840.38;;;9.92;88.33
72925;BME280;61070;50.794;7.054;2024-02-04T05:02:20;101839.16;;;10.04;87.79
72925;BME280;61070;50.794;7.054;2024-02-04T05:03:21;101825.16;;;10.05;87.45
72925;BME280;61070;50.794;7.054;2024-02-04T05:04:21;101830.19;;;10.13;87.23
72925;BME280;61070;50.794;7.054;2024-02-04T05:05:25;101831.28;;;10.04;87.36
72925;BME280;61070;50.794;7.054;2024-02-04T05:06:25;101823.53;;;9.99;87.32
72925;BME280;61070;50.794;7.054;2024-02-04T05:07:26;101824.13;;;10.10;87.31
72925;BME280;61070;50.794;7.054;2024-02-04T05:08:26;101820.03;;;9.99;87.46
72925;BME280;61070;50.794;7.054;2024-02-04T05:09:26;101819.78;;;10.09;87.23
72925;BME280;61070;50.794;7.054;2024-02-04T05:10:26;101814.72;;;10.02;87.30
72925;BME280;61070;50.794;7.054;2024-02-04T05:11:27;101820.03;;;10.00;87.53
72925;BME280;61070;50.794;7.054;2024-02-04T05:12:27;101816.97;;;10.16;87.29
72925;BME280;61070;50.794;7.054;2024-02-04T05:13:27;101811.75;;;10.14;87.13
72925;BME280;61070;50.794;7.054;2024-02-04T05:14:27;101810.94;;;10.12;86.83
72925;BME280;61070;50.794;7.054;2024-02-04T05:15:28;101804.09;;;10.06;87.22
72925;BME280;61070;50.794;7.054;2024-02-04T05:16:30;101813.91;;;10.00;87.13
72925;BME280;61070;50.794;7.054;2024-02-04T05:17:30;101806.97;;;9.97;87.38
72925;BME280;61070;50.794;7.054;2024-02-04T05:18:30;101807.75;;;10.01;87.28
72925;BME280;61070;50.794;7.054;2024-02-04T05:19:31;101801.72;;;9.97;87.50
72925;BME280;61070;50.794;7.054;2024-02-04T05:20:31;101793.00;;;9.97;87.96
72925;BME280;61070;50.794;7.054;2024-02-04T05:21:31;101802.63;;;9.96;87.24
72925;BME280;61070;50.794;7.054;2024-02-04T05:22:32;101792.75;;;10.06;87.21
72925;BME280;61070;50.794;7.054;2024-02-04T05:23:32;101795.19;;;10.12;86.76
72925;BME280;61070;50.794;7.054;2024-02-04T05:24:32;101790.00;;;10.09;86.74
72925;BME280;61070;50.794;7.054;2024-02-04T05:25:33;101793.09;;;10.23;86.33